sensor_id;sensor_type;location;lat;lon;timestamp;P1;durP1;ratioP1;P2;durP2;ratioP2
14766;SDS011;7475;53.558;9.970;2023-08-31T00:01:28;7.85;;;7.10;;
14766;SDS011;7475;53.558;9.970;2023-08-31T00:03:53;7.13;;;6.43;;
14766;SDS011;7475;53.558;9.970;2023-08-31T00:06:19;7.82;;;6.97;;
14766;SDS011;7475;53.558;9.970;2023-08-31T00:08:46;8.05;;;6.82;;
14766;SDS011;7475;53.558;9.970;2023-08-31T00:11:12;6.93;;;6.13;;
14766;SDS011;7475;53.558;9.970;2023-08-31T00:13:37;6.73;;;6.13;;
14766;SDS011;7475;53.558;9.970;2023-08-31T00:16:03;7.60;;;6.43;;
14766;SDS011;7475;53.558;9.970;2023-08-31T00:18:29;6.70;;;6.10;;
14766;SDS011;7475;53.558;9.970;2023-08-31T00:20:55;7.30;;;6.60;;
14766;SDS011;7475;53.558;9.970;2023-08-31T00:23:20;7.30;;;6.60;;
14766;SDS011;7475;53.558;9.970;2023-08-31T00:25:48;8.02;;;6.35;;
14766;SDS011;7475;53.558;9.970;2023-08-31T00:28:14;7.70;;;7.00;;
14766;SDS011;7475;53.558;9.970;2023-08-31T00:30:40;7.80;;;7.10;;
14766;SDS011;7475;53.558;9.970;2023-08-31T00:33:05;8.20;;;6.90;;
14766;SDS011;7475;53.558;9.970;2023-08-31T00:35:32;9.07;;;8.18;;
14766;SDS011;7475;53.558;9.970;2023-08-31T00:37:58;7.80;;;7.05;;
14766;SDS011;7475;53.558;9.970;2023-08-31T00:40:24;8.40;;;7.53;;
14766;SDS011;7475;53.558;9.970;2023-08-31T00:42:49;8.15;;;7.35;;
14766;SDS011;7475;53.558;9.970;2023-08-31T00:45:14;7.90;;;7.18;;
14766;SDS011;7475;53.558;9.970;2023-08-31T00:47:40;8.40;;;6.78;;
14766;SDS011;7475;53.558;9.970;2023-08-31T00:50:06;8.15;;;7.30;;
14766;SDS011;7475;53.558;9.970;2023-08-31T00:52:32;7.32;;;6.63;;
14766;SDS011;7475;53.558;9.970;2023-08-31T00:54:57;7.72;;;6.93;;
14766;SDS011;7475;53.558;9.970;2023-08-31T00:57:23;7.22;;;6.60;;
14766;SDS011;7475;53.558;9.970;2023-08-31T00:59:51;8.18;;;7.38;;
14766;SDS011;7475;53.558;9.970;2023-08-31T01:02:22;7.33;;;6.63;;
14766;SDS011;7475;53.558;9.970;2023-08-31T01:07:23;7.47;;;6.47;;
14766;SDS011;7475;53.558;9.970;2023-08-31T01:09:58;8.05;;;7.10;;
14766;SDS011;7475;53.558;9.970;2023-08-31T01:12:30;8.40;;;7.60;;
14766;SDS011;7475;53.558;9.970;2023-08-31T01:15:03;7.68;;;6.97;;
14766;SDS011;7475;53.558;9.970;2023-08-31T01:17:29;7.85;;;6.78;;
14766;SDS011;7475;53.558;9.970;2023-08-31T01:19:58;9.77;;;7.38;;
14766;SDS011;7475;53.558;9.970;2023-08-31T01:25:14;8.52;;;6.90;;
14766;SDS011;7475;53.558;9.970;2023-08-31T01:27:39;12.10;;;6.75;;
14766;SDS011;7475;53.558;9.970;2023-08-31T01:30:05;7.43;;;6.72;;
14766;SDS011;7475;53.558;9.970;2023-08-31T01:32:30;7.75;;;6.72;;
14766;SDS011;7475;53.558;9.970;2023-08-31T01:34:56;7.45;;;6.75;;
14766;SDS011;7475;53.558;9.970;2023-08-31T01:37:36;8.02;;;6.72;;
14766;SDS011;7475;53.558;9.970;2023-08-31T01:40:28;7.53;;;6.60;;
14766;SDS011;7475;53.558;9.970;2023-08-31T01:42:51;7.80;;;6.68;;
14766;SDS011;7475;53.558;9.970;2023-08-31T01:45:20;8.25;;;6.88;;
14766;SDS011;7475;53.558;9.970;2023-08-31T01:47:46;8.45;;;6.65;;
14766;SDS011;7475;53.558;9.970;2023-08-31T01:50:11;7.90;;;7.10;;
14766;SDS011;7475;53.558;9.970;2023-08-31T01:52:36;10.45;;;7.20;;
14766;SDS011;7475;53.558;9.970;2023-08-31T01:55:02;9.90;;;7.67;;
14766;SDS011;7475;53.558;9.970;2023-08-31T01:57:28;7.45;;;6.07;;
14766;SDS011;7475;53.558;9.970;2023-08-31T01:59:53;9.20;;;7.20;;
14766;SDS011;7475;53.558;9.970;2023-08-31T02:02:19;10.68;;;7.13;;
14766;SDS011;7475;53.558;9.970;2023-08-31T02:04:44;8.43;;;7.20;;
14766;SDS011;7475;53.558;9.970;2023-08-31T02:07:09;9.43;;;7.57;;
14766;SDS011;7475;53.558;9.970;2023-08-31T02:09:34;7.77;;;6.80;;
14766;SDS011;7475;53.558;9.970;2023-08-31T02:11:59;9.07;;;7.17;;
14766;SDS011;7475;53.558;9.970;2023-08-31T02:14:24;9.13;;;7.10;;
14766;SDS011;7475;53.558;9.970;2023-08-31T02:16:50;9.75;;;7.15;;
14766;SDS011;7475;53.558;9.970;2023-08-31T02:19:15;9.47;;;7.43;;
14766;SDS011;7475;53.558;9.970;2023-08-31T02:21:40;9.13;;;7.03;;
14766;SDS011;7475;53.558;9.970;2023-08-31T02:24:05;9.63;;;6.85;;
14766;SDS011;7475;53.558;9.970;2023-08-31T02:26:31;10.40;;;7.40;;
14766;SDS011;7475;53.558;9.970;2023-08-31T02:28:56;10.43;;;7.17;;
14766;SDS011;7475;53.558;9.970;2023-08-31T02:31:21;9.02;;;7.13;;
14766;SDS011;7475;53.558;9.970;2023-08-31T02:33:46;7.72;;;6.93;;
14766;SDS011;7475;53.558;9.970;2023-08-31T02:36:12;11.90;;;7.65;;
14766;SDS011;7475;53.558;9.970;2023-08-31T02:38:37;8.00;;;7.18;;
14766;SDS011;7475;53.558;9.970;2023-08-31T02:41:02;8.65;;;6.55;;
14766;SDS011;7475;53.558;9.970;2023-08-31T02:43:27;7.95;;;6.82;;
14766;SDS011;7475;53.558;9.970;2023-08-31T02:46:02;10.30;;;7.32;;
14766;SDS011;7475;53.558;9.970;2023-08-31T02:48:28;8.00;;;6.90;;
14766;SDS011;7475;53.558;9.970;2023-08-31T02:50:54;10.05;;;6.45;;
14766;SDS011;7475;53.558;9.970;2023-08-31T02:53:20;8.85;;;6.63;;
14766;SDS011;7475;53.558;9.970;2023-08-31T02:55:45;9.32;;;7.22;;
14766;SDS011;7475;53.558;9.970;2023-08-31T02:58:10;11.43;;;6.45;;
14766;SDS011;7475;53.558;9.970;2023-08-31T03:00:35;8.55;;;6.45;;
14766;SDS011;7475;53.558;9.970;2023-08-31T03:03:04;7.28;;;6.40;;
14766;SDS011;7475;53.558;9.970;2023-08-31T03:05:29;7.75;;;5.93;;
14766;SDS011;7475;53.558;9.970;2023-08-31T03:07:55;6.53;;;5.50;;
14766;SDS011;7475;53.558;9.970;2023-08-31T03:10:22;7.28;;;5.88;;
14766;SDS011;7475;53.558;9.970;2023-08-31T03:12:47;7.88;;;5.32;;
14766;SDS011;7475;53.558;9.970;2023-08-31T03:15:12;9.13;;;6.30;;
14766;SDS011;7475;53.558;9.970;2023-08-31T03:17:37;8.60;;;5.73;;
14766;SDS011;7475;53.558;9.970;2023-08-31T03:20:03;8.95;;;5.65;;
14766;SDS011;7475;53.558;9.970;2023-08-31T03:22:30;6.45;;;5.10;;
14766;SDS011;7475;53.558;9.970;2023-08-31T03:24:56;7.43;;;5.20;;
14766;SDS011;7475;53.558;9.970;2023-08-31T03:27:21;6.97;;;5.47;;
14766;SDS011;7475;53.558;9.970;2023-08-31T03:29:46;6.50;;;5.78;;
14766;SDS011;7475;53.558;9.970;2023-08-31T03:32:11;5.73;;;5.20;;
14766;SDS011;7475;53.558;9.970;2023-08-31T03:34:37;6.53;;;5.38;;
14766;SDS011;7475;53.558;9.970;2023-08-31T03:37:02;6.35;;;5.15;;
14766;SDS011;7475;53.558;9.970;2023-08-31T03:39:27;7.38;;;5.13;;
14766;SDS011;7475;53.558;9.970;2023-08-31T03:41:53;6.70;;;5.10;;
14766;SDS011;7475;53.558;9.970;2023-08-31T03:44:19;7.13;;;4.32;;
14766;SDS011;7475;53.558;9.970;2023-08-31T03:46:45;7.05;;;4.47;;
14766;SDS011;7475;53.558;9.970;2023-08-31T03:49:10;8.32;;;4.60;;
14766;SDS011;7475;53.558;9.970;2023-08-31T03:51:35;6.43;;;4.93;;
14766;SDS011;7475;53.558;9.970;2023-08-31T03:54:00;5.00;;;4.50;;
14766;SDS011;7475;53.558;9.970;2023-08-31T03:56:26;7.40;;;5.35;;
14766;SDS011;7475;53.558;9.970;2023-08-31T03:58:51;5.97;;;4.45;;
14766;SDS011;7475;53.558;9.970;2023-08-31T04:01:17;6.55;;;4.65;;
14766;SDS011;7475;53.558;9.970;2023-08-31T04:03:42;7.72;;;4.85;;
14766;SDS011;7475;53.558;9.970;2023-08-31T04:06:11;8.75;;;4.35;;
14766;SDS011;7475;53.558;9.970;2023-08-31T04:08:36;8.43;;;4.60;;
14766;SDS011;7475;53.558;9.970;2023-08-31T04:11:01;6.40;;;4.37;;
14766;SDS011;7475;53.558;9.970;2023-08-31T04:13:26;5.15;;;4.43;;
14766;SDS011;7475;53.558;9.970;2023-08-31T04:15:54;7.07;;;4.57;;
14766;SDS011;7475;53.558;9.970;2023-08-31T04:18:20;4.32;;;3.92;;
14766;SDS011;7475;53.558;9.970;2023-08-31T04:20:47;5.63;;;4.00;;
14766;SDS011;7475;53.558;9.970;2023-08-31T04:23:13;8.48;;;4.88;;
14766;SDS011;7475;53.558;9.970;2023-08-31T04:25:38;5.85;;;4.47;;
14766;SDS011;7475;53.558;9.970;2023-08-31T04:28:03;6.93;;;4.57;;
14766;SDS011;7475;53.558;9.970;2023-08-31T04:30:32;9.60;;;4.93;;
14766;SDS011;7475;53.558;9.970;2023-08-31T04:32:57;5.17;;;4.63;;
14766;SDS011;7475;53.558;9.970;2023-08-31T04:35:22;7.07;;;5.13;;
14766;SDS011;7475;53.558;9.970;2023-08-31T04:37:47;7.03;;;4.70;;
14766;SDS011;7475;53.558;9.970;2023-08-31T04:40:13;7.57;;;4.57;;
14766;SDS011;7475;53.558;9.970;2023-08-31T04:42:38;5.50;;;4.80;;
14766;SDS011;7475;53.558;9.970;2023-08-31T04:45:03;7.03;;;4.77;;
14766;SDS011;7475;53.558;9.970;2023-08-31T04:47:28;7.55;;;4.38;;
14766;SDS011;7475;53.558;9.970;2023-08-31T04:49:54;5.97;;;4.20;;
14766;SDS011;7475;53.558;9.970;2023-08-31T04:52:19;6.93;;;4.43;;
14766;SDS011;7475;53.558;9.970;2023-08-31T04:54:44;7.07;;;4.73;;
14766;SDS011;7475;53.558;9.970;2023-08-31T04:57:09;6.07;;;4.27;;
14766;SDS011;7475;53.558;9.970;2023-08-31T04:59:35;7.80;;;4.55;;
14766;SDS011;7475;53.558;9.970;2023-08-31T05:02:00;9.17;;;4.33;;
14766;SDS011;7475;53.558;9.970;2023-08-31T05:04:25;11.07;;;4.85;;
14766;SDS011;7475;53.558;9.970;2023-08-31T05:06:51;9.85;;;4.47;;
14766;SDS011;7475;53.558;9.970;2023-08-31T05:09:16;7.40;;;3.90;;
14766;SDS011;7475;53.558;9.970;2023-08-31T05:11:41;7.90;;;4.97;;
14766;SDS011;7475;53.558;9.970;2023-08-31T05:14:06;5.07;;;4.20;;
14766;SDS011;7475;53.558;9.970;2023-08-31T05:16:32;6.63;;;3.90;;
14766;SDS011;7475;53.558;9.970;2023-08-31T05:18:57;5.47;;;3.90;;
14766;SDS011;7475;53.558;9.970;2023-08-31T05:21:22;6.90;;;4.17;;
14766;SDS011;7475;53.558;9.970;2023-08-31T05:23:47;6.03;;;4.23;;
14766;SDS011;7475;53.558;9.970;2023-08-31T05:26:12;9.70;;;4.30;;
14766;SDS011;7475;53.558;9.970;2023-08-31T05:28:38;5.82;;;4.15;;
14766;SDS011;7475;53.558;9.970;2023-08-31T05:31:04;5.85;;;3.95;;
14766;SDS011;7475;53.558;9.970;2023-08-31T05:33:30;4.72;;;3.50;;
14766;SDS011;7475;53.558;9.970;2023-08-31T05:35:59;5.25;;;4.00;;
14766;SDS011;7475;53.558;9.970;2023-08-31T05:38:25;7.38;;;3.75;;
14766;SDS011;7475;53.558;9.970;2023-08-31T05:40:50;6.97;;;3.67;;
14766;SDS011;7475;53.558;9.970;2023-08-31T05:43:15;5.13;;;3.50;;
14766;SDS011;7475;53.558;9.970;2023-08-31T05:45:41;5.22;;;3.47;;
14766;SDS011;7475;53.558;9.970;2023-08-31T05:48:06;6.40;;;3.45;;
14766;SDS011;7475;53.558;9.970;2023-08-31T05:50:32;8.57;;;3.28;;
14766;SDS011;7475;53.558;9.970;2023-08-31T05:52:57;7.15;;;3.30;;
14766;SDS011;7475;53.558;9.970;2023-08-31T05:55:23;7.05;;;3.40;;
14766;SDS011;7475;53.558;9.970;2023-08-31T05:57:48;4.50;;;3.72;;
14766;SDS011;7475;53.558;9.970;2023-08-31T06:00:13;6.10;;;3.45;;
14766;SDS011;7475;53.558;9.970;2023-08-31T06:02:39;5.68;;;3.28;;
14766;SDS011;7475;53.558;9.970;2023-08-31T06:05:04;6.30;;;3.55;;
14766;SDS011;7475;53.558;9.970;2023-08-31T06:07:30;4.25;;;3.40;;
14766;SDS011;7475;53.558;9.970;2023-08-31T06:09:56;5.63;;;3.58;;
14766;SDS011;7475;53.558;9.970;2023-08-31T06:12:21;8.13;;;3.33;;
14766;SDS011;7475;53.558;9.970;2023-08-31T06:14:46;7.65;;;3.88;;
14766;SDS011;7475;53.558;9.970;2023-08-31T06:17:11;7.05;;;3.50;;
14766;SDS011;7475;53.558;9.970;2023-08-31T06:19:38;6.80;;;3.22;;
14766;SDS011;7475;53.558;9.970;2023-08-31T06:22:03;6.22;;;3.67;;
14766;SDS011;7475;53.558;9.970;2023-08-31T06:24:28;7.38;;;3.65;;
14766;SDS011;7475;53.558;9.970;2023-08-31T06:26:53;6.10;;;3.72;;
14766;SDS011;7475;53.558;9.970;2023-08-31T06:29:20;5.35;;;3.58;;
14766;SDS011;7475;53.558;9.970;2023-08-31T06:31:46;5.53;;;3.20;;
14766;SDS011;7475;53.558;9.970;2023-08-31T06:34:11;5.27;;;3.33;;
14766;SDS011;7475;53.558;9.970;2023-08-31T06:36:36;5.83;;;3.03;;
14766;SDS011;7475;53.558;9.970;2023-08-31T06:39:01;5.97;;;2.83;;
14766;SDS011;7475;53.558;9.970;2023-08-31T06:41:26;6.13;;;3.22;;
14766;SDS011;7475;53.558;9.970;2023-08-31T06:43:52;4.07;;;2.47;;
14766;SDS011;7475;53.558;9.970;2023-08-31T06:46:17;4.88;;;3.22;;
14766;SDS011;7475;53.558;9.970;2023-08-31T06:48:42;6.30;;;3.30;;
14766;SDS011;7475;53.558;9.970;2023-08-31T06:51:08;9.27;;;3.80;;
14766;SDS011;7475;53.558;9.970;2023-08-31T06:53:33;7.17;;;3.00;;
14766;SDS011;7475;53.558;9.970;2023-08-31T06:55:58;5.40;;;3.10;;
14766;SDS011;7475;53.558;9.970;2023-08-31T06:58:23;5.97;;;2.90;;
14766;SDS011;7475;53.558;9.970;2023-08-31T07:00:48;5.57;;;2.60;;
14766;SDS011;7475;53.558;9.970;2023-08-31T07:03:14;4.43;;;2.90;;
14766;SDS011;7475;53.558;9.970;2023-08-31T07:05:41;4.95;;;2.80;;
14766;SDS011;7475;53.558;9.970;2023-08-31T07:08:06;5.25;;;2.72;;
14766;SDS011;7475;53.558;9.970;2023-08-31T07:10:32;3.65;;;2.70;;
14766;SDS011;7475;53.558;9.970;2023-08-31T07:12:57;5.05;;;2.28;;
14766;SDS011;7475;53.558;9.970;2023-08-31T07:15:22;5.53;;;2.22;;
14766;SDS011;7475;53.558;9.970;2023-08-31T07:17:47;4.28;;;2.22;;
14766;SDS011;7475;53.558;9.970;2023-08-31T07:20:12;3.70;;;2.30;;
14766;SDS011;7475;53.558;9.970;2023-08-31T07:22:38;3.97;;;2.40;;
14766;SDS011;7475;53.558;9.970;2023-08-31T07:25:04;2.75;;;2.28;;
14766;SDS011;7475;53.558;9.970;2023-08-31T07:27:29;5.50;;;2.75;;
14766;SDS011;7475;53.558;9.970;2023-08-31T07:29:54;3.30;;;1.90;;
14766;SDS011;7475;53.558;9.970;2023-08-31T07:32:20;3.80;;;1.83;;
14766;SDS011;7475;53.558;9.970;2023-08-31T07:34:45;6.37;;;2.20;;
14766;SDS011;7475;53.558;9.970;2023-08-31T07:37:10;5.87;;;2.23;;
14766;SDS011;7475;53.558;9.970;2023-08-31T07:39:35;4.15;;;1.60;;
14766;SDS011;7475;53.558;9.970;2023-08-31T07:42:00;6.03;;;2.03;;
14766;SDS011;7475;53.558;9.970;2023-08-31T07:44:26;5.68;;;2.33;;
14766;SDS011;7475;53.558;9.970;2023-08-31T07:46:51;4.10;;;1.80;;
14766;SDS011;7475;53.558;9.970;2023-08-31T07:49:17;4.10;;;1.92;;
14766;SDS011;7475;53.558;9.970;2023-08-31T07:51:42;3.27;;;1.57;;
14766;SDS011;7475;53.558;9.970;2023-08-31T07:54:07;3.70;;;1.90;;
14766;SDS011;7475;53.558;9.970;2023-08-31T07:56:32;5.57;;;2.10;;
14766;SDS011;7475;53.558;9.970;2023-08-31T07:58:57;5.53;;;2.00;;
14766;SDS011;7475;53.558;9.970;2023-08-31T08:01:23;4.80;;;2.33;;
14766;SDS011;7475;53.558;9.970;2023-08-31T08:03:48;2.57;;;1.80;;
14766;SDS011;7475;53.558;9.970;2023-08-31T08:06:14;4.20;;;2.22;;
14766;SDS011;7475;53.558;9.970;2023-08-31T08:08:39;4.07;;;2.35;;
14766;SDS011;7475;53.558;9.970;2023-08-31T08:11:04;5.07;;;1.93;;
14766;SDS011;7475;53.558;9.970;2023-08-31T08:13:29;3.25;;;1.90;;
14766;SDS011;7475;53.558;9.970;2023-08-31T08:15:55;2.45;;;1.77;;
14766;SDS011;7475;53.558;9.970;2023-08-31T08:18:20;4.60;;;2.17;;
14766;SDS011;7475;53.558;9.970;2023-08-31T08:20:49;4.70;;;1.97;;
14766;SDS011;7475;53.558;9.970;2023-08-31T08:23:15;2.60;;;1.60;;
14766;SDS011;7475;53.558;9.970;2023-08-31T08:25:40;3.42;;;1.70;;
14766;SDS011;7475;53.558;9.970;2023-08-31T08:28:05;7.63;;;1.97;;
14766;SDS011;7475;53.558;9.970;2023-08-31T08:30:30;4.25;;;1.73;;
14766;SDS011;7475;53.558;9.970;2023-08-31T08:32:56;3.10;;;1.50;;
14766;SDS011;7475;53.558;9.970;2023-08-31T08:35:22;3.20;;;1.92;;
14766;SDS011;7475;53.558;9.970;2023-08-31T08:37:47;3.00;;;1.80;;
14766;SDS011;7475;53.558;9.970;2023-08-31T08:40:12;3.20;;;1.77;;
14766;SDS011;7475;53.558;9.970;2023-08-31T08:42:39;3.87;;;1.70;;
14766;SDS011;7475;53.558;9.970;2023-08-31T08:45:06;3.20;;;1.70;;
14766;SDS011;7475;53.558;9.970;2023-08-31T08:47:33;2.95;;;1.95;;
14766;SDS011;7475;53.558;9.970;2023-08-31T08:49:58;3.22;;;2.47;;
14766;SDS011;7475;53.558;9.970;2023-08-31T08:52:24;2.17;;;1.67;;
14766;SDS011;7475;53.558;9.970;2023-08-31T08:54:50;3.38;;;1.88;;
14766;SDS011;7475;53.558;9.970;2023-08-31T08:57:16;2.58;;;1.98;;
14766;SDS011;7475;53.558;9.970;2023-08-31T08:59:41;4.00;;;2.05;;
14766;SDS011;7475;53.558;9.970;2023-08-31T09:02:07;3.95;;;2.40;;
14766;SDS011;7475;53.558;9.970;2023-08-31T09:04:34;3.58;;;1.60;;
14766;SDS011;7475;53.558;9.970;2023-08-31T09:06:59;4.00;;;2.10;;
14766;SDS011;7475;53.558;9.970;2023-08-31T09:09:24;3.65;;;2.20;;
14766;SDS011;7475;53.558;9.970;2023-08-31T09:11:49;3.90;;;2.10;;
14766;SDS011;7475;53.558;9.970;2023-08-31T09:14:15;4.85;;;2.13;;
14766;SDS011;7475;53.558;9.970;2023-08-31T09:16:43;5.65;;;2.20;;
14766;SDS011;7475;53.558;9.970;2023-08-31T09:19:17;2.33;;;1.75;;
14766;SDS011;7475;53.558;9.970;2023-08-31T09:21:43;3.83;;;2.20;;
14766;SDS011;7475;53.558;9.970;2023-08-31T09:24:08;3.45;;;2.00;;
14766;SDS011;7475;53.558;9.970;2023-08-31T09:26:37;3.17;;;1.75;;
14766;SDS011;7475;53.558;9.970;2023-08-31T09:29:03;3.33;;;2.00;;
14766;SDS011;7475;53.558;9.970;2023-08-31T09:31:29;3.60;;;2.05;;
14766;SDS011;7475;53.558;9.970;2023-08-31T09:33:54;2.90;;;1.90;;
14766;SDS011;7475;53.558;9.970;2023-08-31T09:36:20;3.10;;;2.00;;
14766;SDS011;7475;53.558;9.970;2023-08-31T09:38:46;2.85;;;1.73;;
14766;SDS011;7475;53.558;9.970;2023-08-31T09:41:12;3.75;;;2.00;;
14766;SDS011;7475;53.558;9.970;2023-08-31T09:43:37;4.20;;;2.55;;
14766;SDS011;7475;53.558;9.970;2023-08-31T09:46:03;2.53;;;2.10;;
14766;SDS011;7475;53.558;9.970;2023-08-31T09:48:29;2.78;;;1.50;;
14766;SDS011;7475;53.558;9.970;2023-08-31T09:50:54;3.05;;;1.70;;
14766;SDS011;7475;53.558;9.970;2023-08-31T09:53:20;4.43;;;1.75;;
14766;SDS011;7475;53.558;9.970;2023-08-31T09:55:46;3.75;;;1.95;;
14766;SDS011;7475;53.558;9.970;2023-08-31T09:58:11;3.58;;;1.98;;
14766;SDS011;7475;53.558;9.970;2023-08-31T10:00:37;4.93;;;2.50;;
14766;SDS011;7475;53.558;9.970;2023-08-31T10:03:06;4.60;;;2.83;;
14766;SDS011;7475;53.558;9.970;2023-08-31T10:05:31;5.47;;;2.13;;
14766;SDS011;7475;53.558;9.970;2023-08-31T10:07:58;4.13;;;2.00;;
14766;SDS011;7475;53.558;9.970;2023-08-31T10:10:23;2.97;;;2.10;;
14766;SDS011;7475;53.558;9.970;2023-08-31T10:12:49;4.68;;;2.08;;
14766;SDS011;7475;53.558;9.970;2023-08-31T10:15:15;3.22;;;1.80;;
14766;SDS011;7475;53.558;9.970;2023-08-31T10:17:40;3.60;;;1.90;;
14766;SDS011;7475;53.558;9.970;2023-08-31T10:20:08;3.03;;;1.90;;
14766;SDS011;7475;53.558;9.970;2023-08-31T10:22:53;2.75;;;2.30;;
14766;SDS011;7475;53.558;9.970;2023-08-31T10:25:18;2.55;;;2.00;;
14766;SDS011;7475;53.558;9.970;2023-08-31T10:27:44;3.60;;;1.93;;
14766;SDS011;7475;53.558;9.970;2023-08-31T10:32:46;4.10;;;2.55;;
14766;SDS011;7475;53.558;9.970;2023-08-31T10:35:12;3.03;;;2.13;;
14766;SDS011;7475;53.558;9.970;2023-08-31T10:37:39;3.67;;;2.47;;
14766;SDS011;7475;53.558;9.970;2023-08-31T10:40:08;3.67;;;2.42;;
14766;SDS011;7475;53.558;9.970;2023-08-31T10:42:40;4.15;;;2.47;;
14766;SDS011;7475;53.558;9.970;2023-08-31T10:45:06;2.67;;;1.90;;
14766;SDS011;7475;53.558;9.970;2023-08-31T10:47:38;3.95;;;1.73;;
14766;SDS011;7475;53.558;9.970;2023-08-31T10:50:21;4.53;;;2.10;;
14766;SDS011;7475;53.558;9.970;2023-08-31T10:52:46;2.88;;;1.80;;
14766;SDS011;7475;53.558;9.970;2023-08-31T10:55:13;3.80;;;1.65;;
14766;SDS011;7475;53.558;9.970;2023-08-31T10:57:38;2.55;;;1.70;;
14766;SDS011;7475;53.558;9.970;2023-08-31T11:00:06;2.40;;;1.55;;
14766;SDS011;7475;53.558;9.970;2023-08-31T11:02:37;3.70;;;2.22;;
14766;SDS011;7475;53.558;9.970;2023-08-31T11:07:31;1.88;;;1.33;;
14766;SDS011;7475;53.558;9.970;2023-08-31T11:12:34;2.78;;;1.63;;
14766;SDS011;7475;53.558;9.970;2023-08-31T11:15:00;2.38;;;1.20;;
14766;SDS011;7475;53.558;9.970;2023-08-31T11:17:25;6.40;;;3.27;;
14766;SDS011;7475;53.558;9.970;2023-08-31T11:19:50;2.13;;;1.30;;
14766;SDS011;7475;53.558;9.970;2023-08-31T11:22:15;2.08;;;1.45;;
14766;SDS011;7475;53.558;9.970;2023-08-31T11:24:40;1.10;;;0.93;;
14766;SDS011;7475;53.558;9.970;2023-08-31T11:27:09;2.35;;;1.27;;
14766;SDS011;7475;53.558;9.970;2023-08-31T11:29:37;1.50;;;1.20;;
14766;SDS011;7475;53.558;9.970;2023-08-31T11:32:03;2.15;;;1.42;;
14766;SDS011;7475;53.558;9.970;2023-08-31T11:34:29;1.17;;;0.80;;
14766;SDS011;7475;53.558;9.970;2023-08-31T11:36:54;3.57;;;1.07;;
14766;SDS011;7475;53.558;9.970;2023-08-31T11:39:19;1.60;;;1.23;;
14766;SDS011;7475;53.558;9.970;2023-08-31T11:41:44;2.80;;;1.00;;
14766;SDS011;7475;53.558;9.970;2023-08-31T11:44:11;0.85;;;0.73;;
14766;SDS011;7475;53.558;9.970;2023-08-31T11:46:37;1.70;;;0.90;;
14766;SDS011;7475;53.558;9.970;2023-08-31T11:49:03;2.17;;;1.10;;
14766;SDS011;7475;53.558;9.970;2023-08-31T11:51:32;2.28;;;0.82;;
14766;SDS011;7475;53.558;9.970;2023-08-31T11:53:58;2.33;;;1.10;;
14766;SDS011;7475;53.558;9.970;2023-08-31T11:56:24;2.33;;;1.30;;
14766;SDS011;7475;53.558;9.970;2023-08-31T11:58:50;2.60;;;1.20;;
14766;SDS011;7475;53.558;9.970;2023-08-31T12:01:22;3.45;;;1.20;;
14766;SDS011;7475;53.558;9.970;2023-08-31T12:03:47;2.97;;;1.00;;
14766;SDS011;7475;53.558;9.970;2023-08-31T12:06:19;2.40;;;1.17;;
14766;SDS011;7475;53.558;9.970;2023-08-31T12:08:44;1.40;;;1.13;;
14766;SDS011;7475;53.558;9.970;2023-08-31T12:11:09;1.52;;;1.00;;
14766;SDS011;7475;53.558;9.970;2023-08-31T12:13:34;3.10;;;1.10;;
14766;SDS011;7475;53.558;9.970;2023-08-31T12:16:00;1.77;;;1.00;;
14766;SDS011;7475;53.558;9.970;2023-08-31T12:18:29;2.17;;;0.63;;
14766;SDS011;7475;53.558;9.970;2023-08-31T12:20:54;1.10;;;0.90;;
14766;SDS011;7475;53.558;9.970;2023-08-31T12:23:19;2.20;;;1.10;;
14766;SDS011;7475;53.558;9.970;2023-08-31T12:25:50;4.47;;;1.60;;
14766;SDS011;7475;53.558;9.970;2023-08-31T12:28:19;1.48;;;0.90;;
14766;SDS011;7475;53.558;9.970;2023-08-31T12:30:52;2.35;;;1.20;;
14766;SDS011;7475;53.558;9.970;2023-08-31T12:33:18;3.67;;;1.20;;
14766;SDS011;7475;53.558;9.970;2023-08-31T12:35:43;3.22;;;1.20;;
14766;SDS011;7475;53.558;9.970;2023-08-31T12:38:08;3.55;;;0.75;;
14766;SDS011;7475;53.558;9.970;2023-08-31T12:40:34;2.67;;;0.93;;
14766;SDS011;7475;53.558;9.970;2023-08-31T12:42:59;4.70;;;1.00;;
14766;SDS011;7475;53.558;9.970;2023-08-31T12:45:24;7.95;;;1.88;;
14766;SDS011;7475;53.558;9.970;2023-08-31T12:47:49;2.53;;;1.70;;
14766;SDS011;7475;53.558;9.970;2023-08-31T12:50:15;2.88;;;0.90;;
14766;SDS011;7475;53.558;9.970;2023-08-31T12:52:40;2.83;;;1.00;;
14766;SDS011;7475;53.558;9.970;2023-08-31T12:55:12;2.15;;;1.10;;
14766;SDS011;7475;53.558;9.970;2023-08-31T12:57:37;2.78;;;0.82;;
14766;SDS011;7475;53.558;9.970;2023-08-31T13:00:03;1.58;;;0.95;;
14766;SDS011;7475;53.558;9.970;2023-08-31T13:02:30;2.25;;;1.42;;
14766;SDS011;7475;53.558;9.970;2023-08-31T13:04:55;8.43;;;7.38;;
14766;SDS011;7475;53.558;9.970;2023-08-31T13:07:20;2.13;;;1.53;;
14766;SDS011;7475;53.558;9.970;2023-08-31T13:09:45;2.95;;;1.38;;
14766;SDS011;7475;53.558;9.970;2023-08-31T13:12:11;4.30;;;1.55;;
14766;SDS011;7475;53.558;9.970;2023-08-31T13:14:36;1.03;;;0.70;;
14766;SDS011;7475;53.558;9.970;2023-08-31T13:17:01;3.65;;;1.30;;
14766;SDS011;7475;53.558;9.970;2023-08-31T13:19:27;2.85;;;0.75;;
14766;SDS011;7475;53.558;9.970;2023-08-31T13:21:53;1.67;;;0.90;;
14766;SDS011;7475;53.558;9.970;2023-08-31T13:24:18;2.17;;;0.90;;
14766;SDS011;7475;53.558;9.970;2023-08-31T13:26:43;2.40;;;1.05;;
14766;SDS011;7475;53.558;9.970;2023-08-31T13:29:12;1.70;;;1.10;;
14766;SDS011;7475;53.558;9.970;2023-08-31T13:31:37;1.95;;;0.90;;
14766;SDS011;7475;53.558;9.970;2023-08-31T13:34:02;1.43;;;0.90;;
14766;SDS011;7475;53.558;9.970;2023-08-31T13:36:28;1.55;;;0.90;;
14766;SDS011;7475;53.558;9.970;2023-08-31T13:38:53;2.60;;;1.17;;
14766;SDS011;7475;53.558;9.970;2023-08-31T13:41:19;3.03;;;2.20;;
14766;SDS011;7475;53.558;9.970;2023-08-31T13:43:44;5.37;;;3.43;;
14766;SDS011;7475;53.558;9.970;2023-08-31T13:46:09;4.43;;;2.45;;
14766;SDS011;7475;53.558;9.970;2023-08-31T13:48:34;1.48;;;0.80;;
14766;SDS011;7475;53.558;9.970;2023-08-31T13:50:59;3.00;;;1.13;;
14766;SDS011;7475;53.558;9.970;2023-08-31T13:53:24;5.78;;;1.08;;
14766;SDS011;7475;53.558;9.970;2023-08-31T13:55:50;1.58;;;1.10;;
14766;SDS011;7475;53.558;9.970;2023-08-31T13:58:15;2.33;;;0.80;;
14766;SDS011;7475;53.558;9.970;2023-08-31T14:00:40;1.83;;;0.83;;
14766;SDS011;7475;53.558;9.970;2023-08-31T14:03:06;2.60;;;0.90;;
14766;SDS011;7475;53.558;9.970;2023-08-31T14:05:32;1.42;;;0.80;;
14766;SDS011;7475;53.558;9.970;2023-08-31T14:07:57;1.42;;;0.70;;
14766;SDS011;7475;53.558;9.970;2023-08-31T14:10:23;1.67;;;0.80;;
14766;SDS011;7475;53.558;9.970;2023-08-31T14:12:49;2.47;;;0.88;;
14766;SDS011;7475;53.558;9.970;2023-08-31T14:15:14;1.30;;;0.70;;
14766;SDS011;7475;53.558;9.970;2023-08-31T14:17:39;29.50;;;21.75;;
14766;SDS011;7475;53.558;9.970;2023-08-31T14:20:04;2.60;;;1.00;;
14766;SDS011;7475;53.558;9.970;2023-08-31T14:22:32;2.22;;;1.02;;
14766;SDS011;7475;53.558;9.970;2023-08-31T14:24:58;1.23;;;0.75;;
14766;SDS011;7475;53.558;9.970;2023-08-31T14:27:24;3.25;;;0.80;;
14766;SDS011;7475;53.558;9.970;2023-08-31T14:29:49;1.48;;;0.73;;
14766;SDS011;7475;53.558;9.970;2023-08-31T14:32:14;1.70;;;0.85;;
14766;SDS011;7475;53.558;9.970;2023-08-31T14:34:40;1.67;;;0.67;;
14766;SDS011;7475;53.558;9.970;2023-08-31T14:37:06;3.40;;;1.00;;
14766;SDS011;7475;53.558;9.970;2023-08-31T14:39:31;1.35;;;0.68;;
14766;SDS011;7475;53.558;9.970;2023-08-31T14:41:56;15.88;;;12.63;;
14766;SDS011;7475;53.558;9.970;2023-08-31T14:44:25;1.63;;;1.10;;
14766;SDS011;7475;53.558;9.970;2023-08-31T14:46:51;2.05;;;0.68;;
14766;SDS011;7475;53.558;9.970;2023-08-31T14:49:16;2.58;;;2.13;;
14766;SDS011;7475;53.558;9.970;2023-08-31T14:51:41;1.73;;;0.82;;
14766;SDS011;7475;53.558;9.970;2023-08-31T14:54:07;2.10;;;0.60;;
14766;SDS011;7475;53.558;9.970;2023-08-31T14:56:32;1.98;;;0.80;;
14766;SDS011;7475;53.558;9.970;2023-08-31T14:58:57;2.30;;;1.00;;
14766;SDS011;7475;53.558;9.970;2023-08-31T15:01:22;2.97;;;1.75;;
14766;SDS011;7475;53.558;9.970;2023-08-31T15:03:49;1.35;;;0.60;;
14766;SDS011;7475;53.558;9.970;2023-08-31T15:06:14;1.73;;;0.98;;